createdAt,value
2018-05-04T00:01:57.356Z,2.50
2018-05-04T00:04:24.977Z,2.30
2018-05-04T00:06:52.527Z,2.33
2018-05-04T00:09:20.464Z,2.40
2018-05-04T00:11:47.984Z,2.30
2018-05-04T00:14:15.499Z,2.30
2018-05-04T00:16:43.018Z,2.10
2018-05-04T00:19:10.546Z,2.17
2018-05-04T00:21:38.064Z,2.50
2018-05-04T00:24:05.650Z,2.30
2018-05-04T00:26:33.234Z,2.93
2018-05-04T00:29:00.756Z,2.10
2018-05-04T00:31:28.308Z,2.27
2018-05-04T00:33:55.903Z,2.37
2018-05-04T00:36:23.439Z,2.53
2018-05-04T00:38:50.955Z,2.53
2018-05-04T00:41:18.485Z,2.43
2018-05-04T00:43:46.040Z,2.80
2018-05-04T00:46:13.591Z,2.40
2018-05-04T00:48:41.104Z,2.57
2018-05-04T00:51:08.625Z,2.50
2018-05-04T00:53:47.975Z,3.00
2018-05-04T00:56:15.500Z,2.70
2018-05-04T00:58:43.016Z,2.87
2018-05-04T01:01:10.563Z,2.60
2018-05-04T01:03:38.080Z,2.60
2018-05-04T01:06:05.593Z,2.70
2018-05-04T01:08:33.115Z,3.00
2018-05-04T01:11:00.630Z,3.23
2018-05-04T01:13:28.230Z,2.80
2018-05-04T01:15:55.748Z,2.57
2018-05-04T01:18:23.275Z,2.60
2018-05-04T01:20:50.915Z,2.80
2018-05-04T01:23:18.436Z,2.50
2018-05-04T01:25:46.029Z,2.90
2018-05-04T01:28:13.549Z,2.73
2018-05-04T01:30:41.159Z,2.50
2018-05-04T01:33:08.715Z,2.70
2018-05-04T01:35:36.239Z,2.80
2018-05-04T01:38:03.756Z,2.60
2018-05-04T01:40:31.396Z,3.00
2018-05-04T01:42:58.910Z,2.90
2018-05-04T01:45:26.511Z,2.83
2018-05-04T01:47:54.041Z,3.23
2018-05-04T01:50:21.567Z,2.70
2018-05-04T01:52:49.676Z,2.90
2018-05-04T01:55:17.192Z,2.83
2018-05-04T01:57:44.708Z,2.80
2018-05-04T02:00:12.254Z,3.10
2018-05-04T02:02:39.797Z,2.57
2018-05-04T02:05:07.316Z,2.70
2018-05-04T02:07:34.827Z,2.70
2018-05-04T02:10:02.357Z,3.33
2018-05-04T02:12:29.967Z,2.90
2018-05-04T02:14:57.479Z,2.83
2018-05-04T02:17:25.103Z,3.20
2018-05-04T02:19:52.637Z,3.13
2018-05-04T02:22:20.224Z,2.63
2018-05-04T02:24:47.739Z,3.43
2018-05-04T02:27:15.266Z,2.90
2018-05-04T02:29:42.785Z,2.90
2018-05-04T02:32:10.290Z,3.10
2018-05-04T02:34:37.907Z,2.53
2018-05-04T02:37:05.420Z,3.03
2018-05-04T02:39:32.941Z,2.93
2018-05-04T02:42:00.456Z,2.87
2018-05-04T02:44:27.967Z,3.00
2018-05-04T02:46:55.517Z,2.73
2018-05-04T02:49:23.063Z,3.00
2018-05-04T02:51:50.637Z,2.33
2018-05-04T02:54:18.165Z,2.30
2018-05-04T02:56:45.704Z,2.90
2018-05-04T02:59:13.236Z,2.87
2018-05-04T03:01:40.755Z,2.37
2018-05-04T03:04:08.340Z,2.70
2018-05-04T03:06:35.862Z,3.27
2018-05-04T03:09:03.440Z,2.80
2018-05-04T03:11:30.948Z,3.20
2018-05-04T03:13:58.570Z,3.10
2018-05-04T03:16:26.131Z,3.50
2018-05-04T03:18:53.690Z,3.10
2018-05-04T03:21:21.210Z,3.20
2018-05-04T03:23:48.738Z,3.30
2018-05-04T03:26:16.256Z,3.23
2018-05-04T03:28:43.762Z,3.60
2018-05-04T03:31:11.375Z,2.83
2018-05-04T03:33:38.885Z,3.30
2018-05-04T03:36:06.407Z,3.47
2018-05-04T03:38:34.715Z,3.20
2018-05-04T03:41:02.355Z,3.80
2018-05-04T03:43:29.864Z,3.63
2018-05-04T03:45:57.392Z,3.57
2018-05-04T03:48:24.924Z,3.67
2018-05-04T03:50:52.444Z,3.80
2018-05-04T03:53:19.956Z,3.43
2018-05-04T03:55:47.473Z,3.60
2018-05-04T03:58:26.841Z,4.00
2018-05-04T04:01:06.178Z,3.60
2018-05-04T04:03:45.612Z,3.30
2018-05-04T04:06:13.129Z,3.77
2018-05-04T04:08:40.658Z,3.47
2018-05-04T04:11:08.166Z,3.57
2018-05-04T04:13:35.701Z,3.57
2018-05-04T04:16:03.235Z,3.90
2018-05-04T04:18:30.741Z,3.87
2018-05-04T04:20:58.258Z,4.43
2018-05-04T04:23:25.777Z,4.10
2018-05-04T04:25:53.345Z,4.20
2018-05-04T04:28:20.871Z,4.00
2018-05-04T04:30:48.388Z,3.77
2018-05-04T04:33:15.912Z,3.70
2018-05-04T04:35:43.429Z,4.20
2018-05-04T04:38:10.948Z,4.23
2018-05-04T04:40:38.505Z,3.47
2018-05-04T04:43:06.033Z,3.70
2018-05-04T04:45:33.568Z,3.83
2018-05-04T04:48:01.109Z,3.37
2018-05-04T04:50:28.631Z,3.70
2018-05-04T04:52:56.156Z,3.57
2018-05-04T04:55:23.685Z,4.40
2018-05-04T04:57:51.205Z,3.67
2018-05-04T05:00:18.755Z,3.30
2018-05-04T05:02:46.275Z,3.53
2018-05-04T05:05:13.800Z,3.80
2018-05-04T05:07:41.319Z,3.60
2018-05-04T05:10:08.842Z,3.53
2018-05-04T05:12:36.364Z,3.33
2018-05-04T05:15:03.888Z,3.57
2018-05-04T05:17:31.432Z,3.33
2018-05-04T05:19:58.950Z,3.03
2018-05-04T05:22:26.468Z,3.70
2018-05-04T05:24:53.993Z,3.23
2018-05-04T05:27:21.503Z,3.07
2018-05-04T05:29:49.025Z,3.47
2018-05-04T05:32:16.547Z,3.10
2018-05-04T05:34:44.075Z,3.47
2018-05-04T05:37:11.636Z,3.20
2018-05-04T05:39:39.171Z,3.13
2018-05-04T05:42:06.734Z,3.57
2018-05-04T05:44:34.316Z,3.17
2018-05-04T05:47:01.842Z,3.30
2018-05-04T05:49:29.392Z,2.60
2018-05-04T05:51:57.003Z,2.50
2018-05-04T05:54:24.454Z,2.57
2018-05-04T05:56:51.987Z,2.40
2018-05-04T05:59:19.538Z,2.50
2018-05-04T06:01:47.067Z,5.73
2018-05-04T06:04:14.592Z,6.70
2018-05-04T06:06:42.132Z,3.00
2018-05-04T06:09:09.670Z,2.70
2018-05-04T06:11:37.210Z,2.97
2018-05-04T06:14:04.732Z,2.50
2018-05-04T06:16:32.256Z,2.63
2018-05-04T06:18:59.781Z,3.00
2018-05-04T06:21:27.313Z,3.57
2018-05-04T06:23:54.848Z,3.20
2018-05-04T06:26:22.399Z,3.13
2018-05-04T06:28:49.924Z,2.57
2018-05-04T06:31:17.535Z,2.40
2018-05-04T06:33:45.204Z,2.77
2018-05-04T06:36:12.671Z,3.23
2018-05-04T06:38:40.196Z,3.07
2018-05-04T06:41:07.823Z,3.33
2018-05-04T06:43:35.382Z,2.47
2018-05-04T06:46:02.913Z,2.70
2018-05-04T06:48:30.431Z,2.20
2018-05-04T06:50:57.963Z,2.10
2018-05-04T06:53:25.524Z,2.00
2018-05-04T06:55:53.049Z,1.87
2018-05-04T06:58:20.587Z,1.57
2018-05-04T07:00:48.196Z,1.70
2018-05-04T07:03:15.717Z,1.77
2018-05-04T07:05:43.248Z,2.00
2018-05-04T07:08:10.763Z,1.80
2018-05-04T07:10:38.297Z,1.67
2018-05-04T07:13:05.818Z,1.50
2018-05-04T07:15:33.352Z,1.90
2018-05-04T07:18:00.886Z,1.63
2018-05-04T07:20:28.487Z,1.40
2018-05-04T07:22:56.004Z,1.90
2018-05-04T07:25:23.563Z,1.47
2018-05-04T07:27:51.124Z,2.30
2018-05-04T07:30:18.713Z,2.40
2018-05-04T07:32:46.233Z,1.23
2018-05-04T07:35:13.756Z,1.63
2018-05-04T07:37:41.267Z,1.50
2018-05-04T07:40:08.785Z,1.33
2018-05-04T07:42:36.298Z,1.93
2018-05-04T07:45:03.900Z,1.40
2018-05-04T07:47:31.484Z,1.57
2018-05-04T07:49:59.446Z,1.53
2018-05-04T07:52:27.070Z,1.40
2018-05-04T07:54:54.594Z,1.27
2018-05-04T07:57:22.123Z,1.73
2018-05-04T07:59:49.644Z,1.50
2018-05-04T08:02:17.173Z,1.27
2018-05-04T08:04:44.734Z,1.17
2018-05-04T08:07:12.249Z,1.20
2018-05-04T08:09:39.783Z,1.08
2018-05-04T08:12:07.295Z,1.67
2018-05-04T08:14:34.824Z,1.50
2018-05-04T08:17:02.357Z,1.23
2018-05-04T08:19:29.885Z,1.40
2018-05-04T08:21:57.405Z,1.12
2018-05-04T08:24:24.929Z,1.20
2018-05-04T08:26:52.460Z,1.10
2018-05-04T08:29:19.984Z,1.05
2018-05-04T08:31:47.513Z,1.37
2018-05-04T08:34:15.042Z,1.23
2018-05-04T08:36:42.566Z,1.25
2018-05-04T08:39:10.113Z,1.35
2018-05-04T08:41:38.268Z,1.15
2018-05-04T08:44:05.811Z,1.15
2018-05-04T08:46:33.379Z,1.15
2018-05-04T08:49:00.937Z,1.33
2018-05-04T08:51:28.466Z,1.37
2018-05-04T08:53:55.984Z,1.67
2018-05-04T08:56:23.523Z,1.42
2018-05-04T08:58:51.048Z,1.30
2018-05-04T09:01:18.564Z,1.20
2018-05-04T09:03:46.202Z,1.25
2018-05-04T09:06:13.729Z,1.20
2018-05-04T09:08:41.278Z,1.20
2018-05-04T09:11:08.817Z,1.67
2018-05-04T09:13:36.345Z,2.20
2018-05-04T09:16:03.867Z,1.35
2018-05-04T09:18:31.388Z,1.00
2018-05-04T09:20:59.020Z,1.70
2018-05-04T09:23:26.576Z,1.08
2018-05-04T09:25:54.100Z,1.10
2018-05-04T09:28:21.630Z,0.90
2018-05-04T09:30:49.260Z,1.20
2018-05-04T09:33:16.719Z,1.20
2018-05-04T09:35:44.245Z,0.98
2018-05-04T09:38:11.763Z,1.90
2018-05-04T09:40:39.293Z,1.40
2018-05-04T09:43:06.859Z,1.30
2018-05-04T09:45:34.373Z,1.40
2018-05-04T09:48:01.903Z,1.40
2018-05-04T09:50:29.532Z,1.25
2018-05-04T09:52:57.056Z,1.80
2018-05-04T09:55:24.577Z,1.77
2018-05-04T09:57:52.111Z,1.50
2018-05-04T10:00:19.640Z,1.50
2018-05-04T10:02:47.173Z,1.70
2018-05-04T10:05:14.752Z,1.20
2018-05-04T10:07:42.272Z,1.37
2018-05-04T10:10:09.909Z,2.08
2018-05-04T10:12:37.474Z,1.45
2018-05-04T10:15:05.009Z,1.42
2018-05-04T10:17:32.550Z,1.25
2018-05-04T10:20:00.155Z,1.23
2018-05-04T10:22:27.679Z,1.00
2018-05-04T10:24:55.196Z,1.35
2018-05-04T10:27:22.728Z,0.90
2018-05-04T10:29:50.274Z,1.20
2018-05-04T10:32:17.847Z,1.00
2018-05-04T10:34:45.376Z,1.30
2018-05-04T10:37:12.891Z,1.37
2018-05-04T10:39:40.399Z,1.10
2018-05-04T10:42:07.915Z,1.40
2018-05-04T10:44:35.430Z,1.10
2018-05-04T10:47:02.950Z,1.30
2018-05-04T10:49:30.562Z,1.60
2018-05-04T10:51:58.092Z,1.73
2018-05-04T10:54:25.609Z,1.50
2018-05-04T10:56:53.148Z,1.48
2018-05-04T10:59:20.659Z,1.52
2018-05-04T11:01:48.246Z,1.20
2018-05-04T11:04:15.826Z,1.52
2018-05-04T11:06:43.353Z,1.30
2018-05-04T11:09:10.891Z,1.10
2018-05-04T11:11:38.442Z,1.67
2018-05-04T11:14:06.051Z,1.20
2018-05-04T11:16:33.570Z,1.40
2018-05-04T11:19:01.172Z,1.20
2018-05-04T11:21:28.722Z,1.40
2018-05-04T11:23:56.299Z,1.50
2018-05-04T11:26:23.821Z,1.27
2018-05-04T11:28:51.344Z,1.83
2018-05-04T11:31:18.974Z,1.30
2018-05-04T11:33:46.498Z,1.40
2018-05-04T11:36:14.025Z,1.77
2018-05-04T11:38:41.546Z,1.50
2018-05-04T11:41:09.097Z,1.17
2018-05-04T11:43:36.672Z,1.20
2018-05-04T11:46:04.211Z,1.30
2018-05-04T11:48:31.799Z,1.30
2018-05-04T11:50:59.371Z,1.40
2018-05-04T11:53:26.889Z,1.50
2018-05-04T11:55:54.436Z,1.23
2018-05-04T11:58:22.025Z,1.43
2018-05-04T12:00:49.940Z,1.20
2018-05-04T12:03:17.572Z,1.17
2018-05-04T12:05:45.440Z,1.23
2018-05-04T12:08:13.310Z,1.10
2018-05-04T12:10:40.970Z,1.40
2018-05-04T12:13:08.501Z,1.33
2018-05-04T12:15:36.089Z,1.50
2018-05-04T12:18:03.619Z,1.40
2018-05-04T12:20:31.149Z,1.47
2018-05-04T12:22:58.668Z,1.13
2018-05-04T12:25:26.227Z,1.20
2018-05-04T12:27:53.751Z,1.10
2018-05-04T12:30:21.271Z,1.43
2018-05-04T12:32:48.776Z,0.90
2018-05-04T12:35:16.303Z,1.33
2018-05-04T12:37:43.825Z,0.90
2018-05-04T12:40:11.351Z,1.40
2018-05-04T12:42:38.909Z,1.30
2018-05-04T12:45:06.424Z,1.27
2018-05-04T12:47:33.945Z,1.50
2018-05-04T12:50:01.494Z,1.47
2018-05-04T12:52:29.003Z,1.50
2018-05-04T12:54:56.643Z,1.20
2018-05-04T12:57:24.196Z,1.30
2018-05-04T12:59:51.724Z,1.40
2018-05-04T13:02:19.254Z,1.10
2018-05-04T13:04:46.879Z,1.20
2018-05-04T13:07:14.413Z,1.20
2018-05-04T13:09:41.957Z,1.30
2018-05-04T13:12:09.481Z,1.10
2018-05-04T13:14:37.022Z,1.10
2018-05-04T13:17:04.531Z,1.23
2018-05-04T13:19:32.074Z,1.37
2018-05-04T13:21:59.669Z,1.07
2018-05-04T13:24:27.253Z,1.20
2018-05-04T13:26:54.805Z,1.30
2018-05-04T13:29:22.329Z,1.30
2018-05-04T13:31:49.847Z,1.20
2018-05-04T13:34:17.399Z,1.13
2018-05-04T13:36:44.960Z,2.00
2018-05-04T13:39:12.486Z,3.53
2018-05-04T13:41:40.017Z,1.40
2018-05-04T13:44:07.556Z,1.33
2018-05-04T13:46:35.095Z,1.10
2018-05-04T13:49:02.654Z,1.37
2018-05-04T13:51:30.233Z,1.03
2018-05-04T13:53:57.723Z,1.00
2018-05-04T13:56:25.283Z,1.10
2018-05-04T13:58:52.813Z,1.03
2018-05-04T14:01:20.380Z,1.07
2018-05-04T14:03:48.123Z,1.30
2018-05-04T14:06:15.580Z,1.70
2018-05-04T14:08:43.195Z,2.30
2018-05-04T14:11:10.938Z,2.70
2018-05-04T14:13:38.563Z,1.23
2018-05-04T14:16:06.080Z,1.50
2018-05-04T14:18:33.611Z,1.43
2018-05-04T14:21:01.157Z,1.10
2018-05-04T14:23:28.832Z,1.40
2018-05-04T14:25:56.362Z,1.30
2018-05-04T14:28:23.878Z,1.40
2018-05-04T14:30:51.416Z,1.27
2018-05-04T14:33:18.939Z,1.03
2018-05-04T14:35:46.495Z,1.10
2018-05-04T14:38:14.060Z,1.20
2018-05-04T14:40:41.621Z,0.93
2018-05-04T14:43:09.182Z,0.97
2018-05-04T14:45:36.829Z,1.00
2018-05-04T14:48:04.377Z,1.13
2018-05-04T14:50:31.900Z,1.00
2018-05-04T14:52:59.420Z,1.30
2018-05-04T14:55:26.980Z,1.00
2018-05-04T14:57:54.541Z,1.20
2018-05-04T15:00:22.059Z,1.37
2018-05-04T15:02:49.582Z,1.30
2018-05-04T15:05:17.148Z,1.10
2018-05-04T15:07:44.696Z,1.10
2018-05-04T15:10:12.356Z,0.90
2018-05-04T15:12:40.101Z,1.30
2018-05-04T15:15:07.652Z,1.30
2018-05-04T15:17:35.163Z,1.00
2018-05-04T15:20:02.889Z,1.13
2018-05-04T15:22:30.449Z,1.00
2018-05-04T15:24:58.059Z,1.00
2018-05-04T15:27:25.526Z,1.00
2018-05-04T15:29:53.399Z,1.43
2018-05-04T15:32:20.926Z,1.00
2018-05-04T15:34:48.481Z,1.23
2018-05-04T15:37:16.043Z,1.20
2018-05-04T15:39:43.676Z,1.17
2018-05-04T15:42:11.236Z,1.10
2018-05-04T15:44:38.900Z,1.20
2018-05-04T15:47:06.456Z,1.10
2018-05-04T15:49:34.015Z,1.00
2018-05-04T15:52:06.519Z,1.20
2018-05-04T15:54:34.051Z,1.23
2018-05-04T15:57:01.610Z,0.93
2018-05-04T15:59:29.188Z,1.10
2018-05-04T16:01:56.717Z,1.37
2018-05-04T16:04:24.289Z,1.20
2018-05-04T16:06:51.813Z,1.40
2018-05-04T16:09:19.399Z,0.90
2018-05-04T16:11:46.956Z,1.20
2018-05-04T16:14:14.555Z,1.77
2018-05-04T16:16:42.081Z,1.00
2018-05-04T16:19:09.624Z,0.90
2018-05-04T16:21:37.215Z,1.07
2018-05-04T16:24:04.743Z,0.90
2018-05-04T16:26:32.260Z,1.30
2018-05-04T16:28:59.874Z,0.90
2018-05-04T16:31:27.627Z,0.90
2018-05-04T16:33:55.325Z,0.87
2018-05-04T16:36:22.855Z,0.90
2018-05-04T16:38:50.451Z,1.20
2018-05-04T16:41:17.968Z,1.13
2018-05-04T16:43:45.488Z,0.97
2018-05-04T16:46:18.825Z,1.43
2018-05-04T16:48:51.867Z,1.40
2018-05-04T16:51:19.407Z,1.20
2018-05-04T16:53:47.014Z,1.10
2018-05-04T16:56:14.580Z,1.10
2018-05-04T16:58:42.116Z,1.00
2018-05-04T17:01:09.746Z,1.20
2018-05-04T17:03:37.259Z,0.93
2018-05-04T17:06:04.765Z,0.80
2018-05-04T17:08:32.340Z,1.30
2018-05-04T17:11:00.092Z,1.17
2018-05-04T17:13:27.623Z,1.20
2018-05-04T17:15:55.148Z,0.90
2018-05-04T17:18:22.666Z,1.20
2018-05-04T17:20:50.192Z,1.20
2018-05-04T17:23:17.709Z,1.17
2018-05-04T17:25:45.291Z,1.07
2018-05-04T17:28:12.894Z,1.10
2018-05-04T17:30:40.443Z,1.50
2018-05-04T17:33:08.012Z,1.40
2018-05-04T17:35:35.537Z,1.17
2018-05-04T17:38:03.062Z,1.40
2018-05-04T17:40:30.695Z,1.30
2018-05-04T17:42:58.310Z,1.30
2018-05-04T17:45:25.852Z,1.43
2018-05-04T17:47:53.392Z,1.20
2018-05-04T17:50:20.947Z,1.17
2018-05-04T17:52:48.472Z,1.13
2018-05-04T17:55:15.992Z,1.23
2018-05-04T17:57:43.629Z,1.43
2018-05-04T18:00:11.140Z,1.37
2018-05-04T18:02:38.740Z,1.30
2018-05-04T18:05:06.292Z,1.70
2018-05-04T18:07:33.909Z,1.87
2018-05-04T18:10:01.499Z,1.37
2018-05-04T18:12:29.071Z,1.57
2018-05-04T18:14:56.651Z,1.77
2018-05-04T18:17:24.185Z,1.80
2018-05-04T18:19:51.766Z,1.40
2018-05-04T18:22:19.316Z,1.40
2018-05-04T18:24:46.857Z,1.47
2018-05-04T18:27:14.372Z,1.40
2018-05-04T18:29:41.909Z,1.47
2018-05-04T18:32:09.463Z,1.40
2018-05-04T18:34:37.000Z,1.20
2018-05-04T18:37:04.657Z,1.70
2018-05-04T18:39:32.274Z,1.70
2018-05-04T18:41:59.886Z,1.87
2018-05-04T18:44:27.473Z,1.83
2018-05-04T18:46:54.988Z,2.00
2018-05-04T18:49:22.588Z,1.93
2018-05-04T18:51:50.106Z,1.80
2018-05-04T18:54:17.722Z,2.10
2018-05-04T18:56:45.205Z,1.90
2018-05-04T18:59:12.778Z,1.70
2018-05-04T19:01:40.318Z,2.00
2018-05-04T19:04:07.961Z,1.40
2018-05-04T19:06:35.516Z,1.40
2018-05-04T19:09:03.041Z,1.70
2018-05-04T19:11:30.565Z,1.80
2018-05-04T19:13:58.297Z,2.03
2018-05-04T19:16:25.824Z,2.00
2018-05-04T19:18:53.343Z,2.10
2018-05-04T19:21:20.976Z,1.60
2018-05-04T19:23:48.500Z,2.00
2018-05-04T19:26:16.048Z,2.03
2018-05-04T19:28:43.578Z,2.03
2018-05-04T19:31:11.095Z,1.70
2018-05-04T19:33:38.652Z,2.00
2018-05-04T19:36:06.257Z,2.40
2018-05-04T19:38:34.000Z,1.93
2018-05-04T19:41:01.663Z,2.10
2018-05-04T19:43:29.347Z,2.13
2018-05-04T19:45:56.967Z,2.43
2018-05-04T19:48:24.470Z,2.40
2018-05-04T19:50:52.101Z,2.80
2018-05-04T19:53:19.661Z,2.30
2018-05-04T19:55:47.329Z,2.87
2018-05-04T19:58:14.839Z,2.37
2018-05-04T20:00:42.503Z,2.80
2018-05-04T20:03:10.179Z,2.83
2018-05-04T20:05:37.779Z,2.80
2018-05-04T20:08:05.436Z,2.50
2018-05-04T20:10:32.996Z,2.70
2018-05-04T20:13:00.523Z,2.67
2018-05-04T20:15:28.111Z,3.00
2018-05-04T20:17:55.632Z,2.83
2018-05-04T20:20:23.142Z,2.73
2018-05-04T20:22:50.721Z,2.47
2018-05-04T20:25:18.291Z,3.23
2018-05-04T20:27:46.104Z,2.80
2018-05-04T20:30:13.779Z,2.70
2018-05-04T20:32:41.349Z,3.07
2018-05-04T20:35:09.006Z,2.90
2018-05-04T20:37:36.577Z,3.10
2018-05-04T20:40:04.061Z,2.87
2018-05-04T20:42:31.672Z,3.33
2018-05-04T20:44:59.242Z,2.83
2018-05-04T20:47:26.773Z,3.00
2018-05-04T20:49:55.104Z,2.93
2018-05-04T20:52:22.733Z,3.10
2018-05-04T20:54:50.308Z,2.57
2018-05-04T20:57:17.876Z,2.77
2018-05-04T20:59:45.427Z,2.80
2018-05-04T21:02:12.951Z,2.37
2018-05-04T21:04:40.477Z,2.40
2018-05-04T21:07:08.073Z,2.53
2018-05-04T21:09:35.615Z,2.80
2018-05-04T21:12:03.187Z,2.53
2018-05-04T21:14:30.716Z,2.93
2018-05-04T21:16:58.333Z,2.90
2018-05-04T21:19:25.849Z,2.93
2018-05-04T21:21:53.365Z,3.10
2018-05-04T21:24:20.924Z,2.80
2018-05-04T21:26:48.496Z,3.10
2018-05-04T21:29:16.008Z,3.27
2018-05-04T21:31:43.556Z,2.90
2018-05-04T21:34:11.072Z,2.77
2018-05-04T21:36:38.593Z,3.07
2018-05-04T21:39:06.198Z,3.13
2018-05-04T21:41:33.697Z,2.87
2018-05-04T21:44:01.219Z,2.70
2018-05-04T21:46:28.735Z,2.57
2018-05-04T21:48:56.246Z,2.90
2018-05-04T21:51:23.779Z,2.53
2018-05-04T21:53:51.304Z,2.77
2018-05-04T21:56:18.892Z,3.00
2018-05-04T21:58:46.481Z,2.77
2018-05-04T22:01:13.944Z,2.90
2018-05-04T22:03:41.577Z,2.57
2018-05-04T22:06:09.094Z,3.17
2018-05-04T22:08:36.647Z,3.10
2018-05-04T22:11:04.164Z,2.70
2018-05-04T22:13:31.709Z,2.67
2018-05-04T22:15:59.270Z,2.53
2018-05-04T22:18:26.830Z,3.13
2018-05-04T22:20:54.352Z,3.10
2018-05-04T22:23:21.889Z,2.77
2018-05-04T22:25:49.509Z,2.73
2018-05-04T22:28:17.072Z,2.80
2018-05-04T22:30:44.589Z,2.90
2018-05-04T22:33:12.125Z,2.70
2018-05-04T22:35:39.649Z,2.33
2018-05-04T22:38:07.310Z,2.60
2018-05-04T22:40:34.824Z,2.63
2018-05-04T22:43:02.369Z,2.50
2018-05-04T22:45:29.893Z,2.77
2018-05-04T22:47:57.407Z,3.03
2018-05-04T22:50:25.012Z,2.50
2018-05-04T22:52:52.528Z,2.90
2018-05-04T22:55:20.132Z,2.57
2018-05-04T22:57:47.663Z,2.80
2018-05-04T23:00:17.837Z,2.60
2018-05-04T23:02:45.447Z,2.60
2018-05-04T23:05:12.959Z,2.83
2018-05-04T23:07:40.471Z,2.20
2018-05-04T23:10:07.990Z,2.83
2018-05-04T23:12:35.506Z,2.57
2018-05-04T23:15:03.076Z,3.03
2018-05-04T23:17:30.595Z,2.50
2018-05-04T23:19:58.115Z,2.23
2018-05-04T23:22:29.488Z,3.07
2018-05-04T23:24:57.023Z,2.90
2018-05-04T23:27:24.655Z,2.67
2018-05-04T23:29:52.169Z,2.60
2018-05-04T23:32:19.689Z,2.87
2018-05-04T23:34:47.210Z,2.57
2018-05-04T23:37:14.787Z,2.77
2018-05-04T23:39:42.295Z,3.17
2018-05-04T23:42:09.913Z,3.27
2018-05-04T23:44:37.444Z,2.37
2018-05-04T23:47:05.005Z,3.07
2018-05-04T23:49:32.671Z,2.63
2018-05-04T23:52:00.229Z,3.10
2018-05-04T23:54:27.740Z,3.10
2018-05-04T23:56:55.379Z,3.80
2018-05-04T23:59:22.900Z,3.03
